Terminal Aerodrome Forecast
Issued by NWS

Home | Current Version | Previous Version | Text Only | Print | Product List | Glossary On
Versions: 1 2 3 4 5 6 7 8 9 10 11 12 13 14 15 16 17 18 19 20
000
FTUS41 KBTV 272320
TAFMSS
TAF
KMSS 272320Z 2800/2824 22004KT P6SM FEW200
     FM280800 00000KT 2SM BR SCT005
     FM281200 24004KT P6SM FEW080
     FM281800 15008KT P6SM SCT250=

USA.gov is the U.S. government's official web portal to all federal, state and local government web resources and services.